Buoy 44906

sailwx.info

Track history (hours):
 
Tides and Currents Weather Stations Pressure Air Temp Water Temp Dewpoint Dewpoint Depression Visibility Wind Speed Wind Dir Waves Ship Positions

Drifting buoy 44906

Last reported at 2017-Jan-17 00:00 UTC. Time now 2017-Jan-17 02:52 UTC.
Position N 37°58' W 033°03'.

Water temperature 17.4 ° C

Date/timePositionNaut miles runAvg speedWind from/ knotsBaromVisibWave heightAir tempDewpointWater temp
2017-Jan-17 00:00N 37°58' W 033°03'0 0.0 17.4
2017-Jan-16 23:00N 37°58' W 033°03'1 1.1 17.4
2017-Jan-16 22:00N 37°58' W 033°04'0 0.0 17.4
2017-Jan-16 21:00N 37°58' W 033°04'0 0.0 17.4
2017-Jan-16 20:00N 37°58' W 033°04'0 0.0 17.5
2017-Jan-16 19:00N 37°58' W 033°04'0 0.5 17.5
2017-Jan-16 18:00N 37°58' W 033°04'0 0.0 17.5
2017-Jan-16 17:00N 37°58' W 033°04'0 0.0 17.5
2017-Jan-16 16:00N 37°58' W 033°04'1 0.6 17.6
2017-Jan-16 15:00N 37°57' W 033°04'2 1.1 17.6
2017-Jan-16 13:00N 37°58' W 033°01'0 0.0 17.5
2017-Jan-16 12:00N 37°58' W 033°01'0 0.0 17.5
2017-Jan-16 11:00N 37°58' W 033°01'0 0.0 17.6
2017-Jan-16 10:00N 37°58' W 033°01'2 0.8 17.6
2017-Jan-16 08:00N 37°59' W 032°59'3 1.5 17.6
2017-Jan-16 06:00N 37°58' W 033°03'1 0.1 17.6
2017-Jan-16 00:00N 37°58' W 033°03'0 0.0 17.5
2017-Jan-15 23:00N 37°58' W 033°03'1 0.8 17.5
2017-Jan-15 22:00N 37°57' W 033°02'1 1.1 17.5
2017-Jan-15 21:00N 37°58' W 033°04'1 1.1 17.5
2017-Jan-15 20:00N 37°57' W 033°02'1 1.1 17.5
2017-Jan-15 19:00N 37°56' W 033°04'0 0.0 17.6
2017-Jan-15 17:00N 37°56' W 033°04'1 0.5 17.4
2017-Jan-15 15:00N 37°56' W 033°02'1 0.3 17.4
2017-Jan-15 12:00N 37°56' W 033°02'1 0.6 17.4
2017-Jan-15 11:00N 37°56' W 033°02'0 0.0 17.4
2017-Jan-15 10:00N 37°56' W 033°02'0 0.0 17.4
2017-Jan-15 09:00N 37°56' W 033°02'0 0.0 17.4
2017-Jan-15 08:00N 37°56' W 033°02'1 0.6 17.4
2017-Jan-15 07:00N 37°56' W 033°02'0 0.0 17.4
2017-Jan-15 06:00N 37°56' W 033°02'1 0.6 17.4
2017-Jan-15 05:00N 37°55' W 033°02'0 0.1 17.4
2017-Jan-15 00:00N 37°55' W 033°01'0 0.5 17.4
2017-Jan-14 23:00N 37°55' W 033°01'1 1.3 17.4
2017-Jan-14 22:00N 37°56' W 033°01'2 1.5 17.4
2017-Jan-14 21:00N 37°56' W 032°59'0 0.0 17.4
2017-Jan-14 20:00N 37°56' W 032°59'0 0.5 17.4
2017-Jan-14 19:00N 37°56' W 033°00'1 0.6 17.4
2017-Jan-14 17:00N 37°55' W 033°01'0 0.0 17.5
2017-Jan-14 16:00N 37°55' W 033°01'0 0.0 17.5
2017-Jan-14 15:00N 37°55' W 033°01'2 0.8 17.4
2017-Jan-14 13:00N 37°55' W 032°59'0 0.0 17.4
2017-Jan-14 12:00N 37°55' W 032°59'1 0.8 17.4
2017-Jan-14 11:00N 37°55' W 032°59'1 0.6 17.4
2017-Jan-14 10:00N 37°55' W 032°59'0 0.0 17.4
2017-Jan-14 09:00N 37°55' W 032°59'1 0.6 17.4
2017-Jan-14 08:00N 37°55' W 032°59'0 0.0 17.4
2017-Jan-14 07:00N 37°55' W 032°59'1 0.3 17.4
2017-Jan-14 04:00N 37°55' W 032°59'0 0.0 17.4
2017-Jan-14 00:00N 37°55' W 032°59'2 1.9 17.4
2017-Jan-13 23:00N 37°55' W 032°57'0 0.5 17.4
2017-Jan-13 22:00N 37°55' W 032°58'0 0.5 17.4
2017-Jan-13 21:00N 37°55' W 032°57'0 0.5 17.4
2017-Jan-13 20:00N 37°55' W 032°56'0 0.0 17.4
2017-Jan-13 19:00N 37°55' W 032°56'0 0.0 17.4
2017-Jan-13 18:00N 37°55' W 032°56'1 0.9 17.4
2017-Jan-13 17:00N 37°55' W 032°58'1 1.4 17.4
2017-Jan-13 16:00N 37°55' W 032°56'1 1.4 17.4
2017-Jan-13 15:00N 37°55' W 032°58'1 0.6 17.4
2017-Jan-13 13:00N 37°55' W 032°56'0 0.0 17.4
2017-Jan-13 12:00N 37°55' W 032°56'0 0.0 17.4
2017-Jan-13 11:00N 37°55' W 032°56'2 1.5 17.4
2017-Jan-13 10:00N 37°55' W 032°55'1 0.9 17.4
2017-Jan-13 09:00N 37°55' W 032°56'1 1.1 17.4
2017-Jan-13 08:00N 37°54' W 032°55'0 0.0 17.4
2017-Jan-13 07:00N 37°54' W 032°55'1 0.8 17.4
2017-Jan-13 06:00N 37°53' W 032°55'1 0.2 17.4
2017-Jan-13 00:00N 37°53' W 032°53'0 0.0 17.4
2017-Jan-12 23:00N 37°53' W 032°53'0 0.5 17.4
2017-Jan-12 22:00N 37°53' W 032°53'1 0.9 17.4
2017-Jan-12 21:00N 37°53' W 032°52'1 0.6 17.4
2017-Jan-12 20:00N 37°54' W 032°52'0 0.0 17.3
2017-Jan-12 19:00N 37°54' W 032°52'0 0.5 17.4
2017-Jan-12 18:00N 37°54' W 032°51'0 0.0 17.4
2017-Jan-12 17:00N 37°54' W 032°51'0 0.0 17.4
2017-Jan-12 16:00N 37°54' W 032°51'0 0.2 17.3
2017-Jan-12 13:00N 37°54' W 032°50'0 0.5 17.4
2017-Jan-12 12:00N 37°54' W 032°50'1 0.8 17.4
2017-Jan-12 11:00N 37°53' W 032°50'0 0.0 17.4
2017-Jan-12 10:00N 37°53' W 032°50'0 0.0 17.4
2017-Jan-12 09:00N 37°53' W 032°50'2 1.5 17.4
2017-Jan-12 08:00N 37°53' W 032°49'0 0.0 17.4
2017-Jan-12 07:00N 37°53' W 032°49'1 0.6 17.4
2017-Jan-12 06:00N 37°52' W 032°49'0 0.0 17.4
2017-Jan-12 05:00N 37°52' W 032°49'3 2.7 17.4
2017-Jan-12 04:00N 37°53' W 032°46'0 0.0 17.4
2017-Jan-12 00:00N 37°53' W 032°46'0 0.0 17.4
2017-Jan-11 23:00N 37°53' W 032°46'1 0.6 17.4
2017-Jan-11 22:00N 37°53' W 032°46'0 0.0 17.4
2017-Jan-11 21:00N 37°53' W 032°46'0 0.5 17.4
2017-Jan-11 20:00N 37°53' W 032°45'0 0.5 17.4
2017-Jan-11 19:00N 37°53' W 032°46'0 0.0 17.4
2017-Jan-11 18:00N 37°53' W 032°46'2 1.9 17.4
2017-Jan-11 17:00N 37°52' W 032°44'0 0.0 17.4
2017-Jan-11 16:00N 37°52' W 032°44'0 0.0 17.4
2017-Jan-11 14:00N 37°52' W 032°44'1 0.6 17.4
2017-Jan-11 12:00N 37°51' W 032°43'0 0.0 17.3
2017-Jan-11 11:00N 37°51' W 032°43'1 0.8 17.4
2017-Jan-11 10:00N 37°52' W 032°42'1 0.8 17.4
2017-Jan-11 09:00N 37°51' W 032°43'0 0.5 17.3
2017-Jan-11 08:00N 37°51' W 032°42'1 1.1 17.4
2017-Jan-11 07:00N 37°52' W 032°41'1 0.4 17.5
2017-Jan-11 05:00N 37°51' W 032°41'0 0.0 17.3
2017-Jan-11 04:00N 37°51' W 032°41'2 0.5 17.3
2017-Jan-11 00:00N 37°50' W 032°39'0 0.0 17.4
2017-Jan-10 23:00N 37°50' W 032°39'0 0.0 17.4
2017-Jan-10 22:00N 37°50' W 032°39'0 0.0 17.4
2017-Jan-10 21:00N 37°50' W 032°39'1 0.6 17.4
2017-Jan-10 20:00N 37°50' W 032°39'1 0.8 17.4
2017-Jan-10 19:00N 37°50' W 032°38'0 0.5 17.4
2017-Jan-10 18:00N 37°50' W 032°38'0 0.0 17.4
2017-Jan-10 17:00N 37°50' W 032°38'0 0.0 17.3
2017-Jan-10 16:00N 37°50' W 032°38'1 0.9 17.4
2017-Jan-10 15:00N 37°50' W 032°37'0 0.0 17.3
2017-Jan-10 12:00N 37°50' W 032°37'1 1.2 17.3
2017-Jan-10 11:00N 37°49' W 032°37'1 1.1 17.2
2017-Jan-10 10:00N 37°50' W 032°35'0 0.2 17.2
2017-Jan-10 08:00N 37°50' W 032°35'0 0.0 17.3
2017-Jan-10 07:00N 37°50' W 032°35'2 1.5 17.3
2017-Jan-10 06:00N 37°50' W 032°33'2 1.8 17.3
2017-Jan-10 05:00N 37°49' W 032°33'2 2.2 17.3
2017-Jan-10 04:00N 37°50' W 032°35'2 0.5 17.3
2017-Jan-10 00:00N 37°49' W 032°34'0 0.0 17.3
2017-Jan-09 23:00N 37°49' W 032°34'2 1.5 17.3
2017-Jan-09 22:00N 37°49' W 032°32'1 0.6 17.3
2017-Jan-09 20:00N 37°49' W 032°31'1 0.8 17.3
2017-Jan-09 19:00N 37°49' W 032°30'1 0.9 17.3
2017-Jan-09 18:00N 37°49' W 032°29'0 0.0 17.3
2017-Jan-09 17:00N 37°49' W 032°29'0 0.5 17.3
2017-Jan-09 16:00N 37°49' W 032°29'0 0.0 17.3
2017-Jan-09 15:00N 37°49' W 032°29'1 1.4 17.3
2017-Jan-09 14:00N 37°49' W 032°28'0 0.5 17.3
2017-Jan-09 13:00N 37°49' W 032°27'0 0.0 17.3
2017-Jan-09 12:00N 37°49' W 032°27'0 0.0 17.3
2017-Jan-09 11:00N 37°49' W 032°27'0 0.0 17.3
2017-Jan-09 10:00N 37°49' W 032°27'0 0.0 17.3
2017-Jan-09 09:00N 37°49' W 032°27'1 0.6 17.3
2017-Jan-09 08:00N 37°49' W 032°27'1 0.8 17.3
2017-Jan-09 07:00N 37°49' W 032°26'0 0.0 17.3
2017-Jan-09 06:00N 37°49' W 032°26'2 1.5 17.3
2017-Jan-09 05:00N 37°49' W 032°25'0 0.0 17.3
2017-Jan-09 04:00N 37°49' W 032°25'0 0.0 17.3
2017-Jan-09 00:00N 37°49' W 032°25'3 2.9 17.3
2017-Jan-08 23:00N 37°49' W 032°21'1 0.6 17.3
2017-Jan-08 22:00N 37°49' W 032°21'1 1.4 17.3
2017-Jan-08 21:00N 37°49' W 032°23'1 1.4 17.3
2017-Jan-08 20:00N 37°49' W 032°21'1 1.1 17.3
2017-Jan-08 19:00N 37°49' W 032°22'1 0.8 17.3
2017-Jan-08 18:00N 37°50' W 032°22'0 0.0 17.3
2017-Jan-08 17:00N 37°50' W 032°22'0 0.5 17.3
2017-Jan-08 16:00N 37°50' W 032°21'0 0.0 17.3
2017-Jan-08 15:00N 37°50' W 032°21'1 0.4 17.3
2017-Jan-08 11:00N 37°50' W 032°19'0 0.0 17.4
2017-Jan-08 10:00N 37°50' W 032°19'1 0.9 17.4
2017-Jan-08 09:00N 37°50' W 032°20'0 0.0 17.5
2017-Jan-08 08:00N 37°50' W 032°20'1 0.8 17.5
2017-Jan-08 07:00N 37°49' W 032°20'3 2.9 17.5
2017-Jan-08 06:00N 37°49' W 032°16'3 3.0 17.4
2017-Jan-08 05:00N 37°50' W 032°19'0 0.0 17.5
2017-Jan-08 04:00N 37°50' W 032°19'1 0.2 17.4
2017-Jan-08 00:00N 37°51' W 032°19'0 0.0 17.5
2017-Jan-07 23:00N 37°51' W 032°19'0 0.2 17.4
2017-Jan-07 21:00N 37°51' W 032°18'0 0.0 17.3
2017-Jan-07 20:00N 37°51' W 032°18'2 1.8 17.3
2017-Jan-07 19:00N 37°53' W 032°18'0 0.0 17.3
2017-Jan-07 18:00N 37°53' W 032°18'0 0.5 17.3
2017-Jan-07 17:00N 37°53' W 032°19'0 0.0 17.3
2017-Jan-07 16:00N 37°53' W 032°19'0 0.0 17.3
2017-Jan-07 15:00N 37°53' W 032°19'2 1.2 17.3
2017-Jan-07 13:00N 37°53' W 032°16'1 1.1 17.3
2017-Jan-07 12:00N 37°54' W 032°17'0 0.0 17.3
2017-Jan-07 11:00N 37°54' W 032°17'0 0.0 17.3
2017-Jan-07 10:00N 37°54' W 032°17'2 1.5 17.3
2017-Jan-07 09:00N 37°55' W 032°19'0 0.0 17.3
2017-Jan-07 08:00N 37°55' W 032°19'3 1.4 17.3
2017-Jan-07 06:00N 37°55' W 032°15'1 0.4 17.3
2017-Jan-07 04:00N 37°55' W 032°14'0 0.0 17.3
2017-Jan-07 00:00N 37°55' W 032°14'   17.3
Track history (hours):
 
Tides and Currents Weather Stations Pressure Air Temp Water Temp Dewpoint Dewpoint Depression Visibility Wind Speed Wind Dir Waves Ship Positions

Drifting buoy 44906

Last reported at 2017-Jan-17 00:00 UTC. Time now 2017-Jan-17 02:52 UTC.
Position N 37°58' W 033°03'.

Water temperature 17.4 ° C

Date/timePositionNaut miles runAvg speedWind from/ knotsBaromVisibWave heightAir tempDewpointWater temp
2017-Jan-17 00:00N 37°58' W 033°03'0 0.0 17.4
2017-Jan-16 23:00N 37°58' W 033°03'1 1.1 17.4
2017-Jan-16 22:00N 37°58' W 033°04'0 0.0 17.4
2017-Jan-16 21:00N 37°58' W 033°04'0 0.0 17.4
2017-Jan-16 20:00N 37°58' W 033°04'0 0.0 17.5
2017-Jan-16 19:00N 37°58' W 033°04'0 0.5 17.5
2017-Jan-16 18:00N 37°58' W 033°04'0 0.0 17.5
2017-Jan-16 17:00N 37°58' W 033°04'0 0.0 17.5
2017-Jan-16 16:00N 37°58' W 033°04'1 0.6 17.6
2017-Jan-16 15:00N 37°57' W 033°04'2 1.1 17.6
2017-Jan-16 13:00N 37°58' W 033°01'0 0.0 17.5
2017-Jan-16 12:00N 37°58' W 033°01'0 0.0 17.5
2017-Jan-16 11:00N 37°58' W 033°01'0 0.0 17.6
2017-Jan-16 10:00N 37°58' W 033°01'2 0.8 17.6
2017-Jan-16 08:00N 37°59' W 032°59'3 1.5 17.6
2017-Jan-16 06:00N 37°58' W 033°03'1 0.1 17.6
2017-Jan-16 00:00N 37°58' W 033°03'0 0.0 17.5
2017-Jan-15 23:00N 37°58' W 033°03'1 0.8 17.5
2017-Jan-15 22:00N 37°57' W 033°02'1 1.1 17.5
2017-Jan-15 21:00N 37°58' W 033°04'1 1.1 17.5
2017-Jan-15 20:00N 37°57' W 033°02'1 1.1 17.5
2017-Jan-15 19:00N 37°56' W 033°04'0 0.0 17.6
2017-Jan-15 17:00N 37°56' W 033°04'1 0.5 17.4
2017-Jan-15 15:00N 37°56' W 033°02'1 0.3 17.4
2017-Jan-15 12:00N 37°56' W 033°02'1 0.6 17.4
2017-Jan-15 11:00N 37°56' W 033°02'0 0.0 17.4
2017-Jan-15 10:00N 37°56' W 033°02'0 0.0 17.4
2017-Jan-15 09:00N 37°56' W 033°02'0 0.0 17.4
2017-Jan-15 08:00N 37°56' W 033°02'1 0.6 17.4
2017-Jan-15 07:00N 37°56' W 033°02'0 0.0 17.4
2017-Jan-15 06:00N 37°56' W 033°02'1 0.6 17.4
2017-Jan-15 05:00N 37°55' W 033°02'0 0.1 17.4
2017-Jan-15 00:00N 37°55' W 033°01'0 0.5 17.4
2017-Jan-14 23:00N 37°55' W 033°01'1 1.3 17.4
2017-Jan-14 22:00N 37°56' W 033°01'2 1.5 17.4
2017-Jan-14 21:00N 37°56' W 032°59'0 0.0 17.4
2017-Jan-14 20:00N 37°56' W 032°59'0 0.5 17.4
2017-Jan-14 19:00N 37°56' W 033°00'1 0.6 17.4
2017-Jan-14 17:00N 37°55' W 033°01'0 0.0 17.5
2017-Jan-14 16:00N 37°55' W 033°01'0 0.0 17.5
2017-Jan-14 15:00N 37°55' W 033°01'2 0.8 17.4
2017-Jan-14 13:00N 37°55' W 032°59'0 0.0 17.4
2017-Jan-14 12:00N 37°55' W 032°59'1 0.8 17.4
2017-Jan-14 11:00N 37°55' W 032°59'1 0.6 17.4
2017-Jan-14 10:00N 37°55' W 032°59'0 0.0 17.4
2017-Jan-14 09:00N 37°55' W 032°59'1 0.6 17.4
2017-Jan-14 08:00N 37°55' W 032°59'0 0.0 17.4
2017-Jan-14 07:00N 37°55' W 032°59'1 0.3 17.4
2017-Jan-14 04:00N 37°55' W 032°59'0 0.0 17.4
2017-Jan-14 00:00N 37°55' W 032°59'2 1.9 17.4
2017-Jan-13 23:00N 37°55' W 032°57'0 0.5 17.4
2017-Jan-13 22:00N 37°55' W 032°58'0 0.5 17.4
2017-Jan-13 21:00N 37°55' W 032°57'0 0.5 17.4
2017-Jan-13 20:00N 37°55' W 032°56'0 0.0 17.4
2017-Jan-13 19:00N 37°55' W 032°56'0 0.0 17.4
2017-Jan-13 18:00N 37°55' W 032°56'1 0.9 17.4
2017-Jan-13 17:00N 37°55' W 032°58'1 1.4 17.4
2017-Jan-13 16:00N 37°55' W 032°56'1 1.4 17.4
2017-Jan-13 15:00N 37°55' W 032°58'1 0.6 17.4
2017-Jan-13 13:00N 37°55' W 032°56'0 0.0 17.4
2017-Jan-13 12:00N 37°55' W 032°56'0 0.0 17.4
2017-Jan-13 11:00N 37°55' W 032°56'2 1.5 17.4
2017-Jan-13 10:00N 37°55' W 032°55'1 0.9 17.4
2017-Jan-13 09:00N 37°55' W 032°56'1 1.1 17.4
2017-Jan-13 08:00N 37°54' W 032°55'0 0.0 17.4
2017-Jan-13 07:00N 37°54' W 032°55'1 0.8 17.4
2017-Jan-13 06:00N 37°53' W 032°55'1 0.2 17.4
2017-Jan-13 00:00N 37°53' W 032°53'0 0.0 17.4
2017-Jan-12 23:00N 37°53' W 032°53'0 0.5 17.4
2017-Jan-12 22:00N 37°53' W 032°53'1 0.9 17.4
2017-Jan-12 21:00N 37°53' W 032°52'1 0.6 17.4
2017-Jan-12 20:00N 37°54' W 032°52'0 0.0 17.3
2017-Jan-12 19:00N 37°54' W 032°52'0 0.5 17.4
2017-Jan-12 18:00N 37°54' W 032°51'0 0.0 17.4
2017-Jan-12 17:00N 37°54' W 032°51'0 0.0 17.4
2017-Jan-12 16:00N 37°54' W 032°51'0 0.2 17.3
2017-Jan-12 13:00N 37°54' W 032°50'0 0.5 17.4
2017-Jan-12 12:00N 37°54' W 032°50'1 0.8 17.4
2017-Jan-12 11:00N 37°53' W 032°50'0 0.0 17.4
2017-Jan-12 10:00N 37°53' W 032°50'0 0.0 17.4
2017-Jan-12 09:00N 37°53' W 032°50'2 1.5 17.4
2017-Jan-12 08:00N 37°53' W 032°49'0 0.0 17.4
2017-Jan-12 07:00N 37°53' W 032°49'1 0.6 17.4
2017-Jan-12 06:00N 37°52' W 032°49'0 0.0 17.4
2017-Jan-12 05:00N 37°52' W 032°49'3 2.7 17.4
2017-Jan-12 04:00N 37°53' W 032°46'0 0.0 17.4
2017-Jan-12 00:00N 37°53' W 032°46'0 0.0 17.4
2017-Jan-11 23:00N 37°53' W 032°46'1 0.6 17.4
2017-Jan-11 22:00N 37°53' W 032°46'0 0.0 17.4
2017-Jan-11 21:00N 37°53' W 032°46'0 0.5 17.4
2017-Jan-11 20:00N 37°53' W 032°45'0 0.5 17.4
2017-Jan-11 19:00N 37°53' W 032°46'0 0.0 17.4
2017-Jan-11 18:00N 37°53' W 032°46'2 1.9 17.4
2017-Jan-11 17:00N 37°52' W 032°44'0 0.0 17.4
2017-Jan-11 16:00N 37°52' W 032°44'0 0.0 17.4
2017-Jan-11 14:00N 37°52' W 032°44'1 0.6 17.4
2017-Jan-11 12:00N 37°51' W 032°43'0 0.0 17.3
2017-Jan-11 11:00N 37°51' W 032°43'1 0.8 17.4
2017-Jan-11 10:00N 37°52' W 032°42'1 0.8 17.4
2017-Jan-11 09:00N 37°51' W 032°43'0 0.5 17.3
2017-Jan-11 08:00N 37°51' W 032°42'1 1.1 17.4
2017-Jan-11 07:00N 37°52' W 032°41'1 0.4 17.5
2017-Jan-11 05:00N 37°51' W 032°41'0 0.0 17.3
2017-Jan-11 04:00N 37°51' W 032°41'2 0.5 17.3
2017-Jan-11 00:00N 37°50' W 032°39'0 0.0 17.4
2017-Jan-10 23:00N 37°50' W 032°39'0 0.0 17.4
2017-Jan-10 22:00N 37°50' W 032°39'0 0.0 17.4
2017-Jan-10 21:00N 37°50' W 032°39'1 0.6 17.4
2017-Jan-10 20:00N 37°50' W 032°39'1 0.8 17.4
2017-Jan-10 19:00N 37°50' W 032°38'0 0.5 17.4
2017-Jan-10 18:00N 37°50' W 032°38'0 0.0 17.4
2017-Jan-10 17:00N 37°50' W 032°38'0 0.0 17.3
2017-Jan-10 16:00N 37°50' W 032°38'1 0.9 17.4
2017-Jan-10 15:00N 37°50' W 032°37'0 0.0 17.3
2017-Jan-10 12:00N 37°50' W 032°37'1 1.2 17.3
2017-Jan-10 11:00N 37°49' W 032°37'1 1.1 17.2
2017-Jan-10 10:00N 37°50' W 032°35'0 0.2 17.2
2017-Jan-10 08:00N 37°50' W 032°35'0 0.0 17.3
2017-Jan-10 07:00N 37°50' W 032°35'2 1.5 17.3
2017-Jan-10 06:00N 37°50' W 032°33'2 1.8 17.3
2017-Jan-10 05:00N 37°49' W 032°33'2 2.2 17.3
2017-Jan-10 04:00N 37°50' W 032°35'2 0.5 17.3
2017-Jan-10 00:00N 37°49' W 032°34'0 0.0 17.3
2017-Jan-09 23:00N 37°49' W 032°34'2 1.5 17.3
2017-Jan-09 22:00N 37°49' W 032°32'1 0.6 17.3
2017-Jan-09 20:00N 37°49' W 032°31'1 0.8 17.3
2017-Jan-09 19:00N 37°49' W 032°30'1 0.9 17.3
2017-Jan-09 18:00N 37°49' W 032°29'0 0.0 17.3
2017-Jan-09 17:00N 37°49' W 032°29'0 0.5 17.3
2017-Jan-09 16:00N 37°49' W 032°29'0 0.0 17.3
2017-Jan-09 15:00N 37°49' W 032°29'1 1.4 17.3
2017-Jan-09 14:00N 37°49' W 032°28'0 0.5 17.3
2017-Jan-09 13:00N 37°49' W 032°27'0 0.0 17.3
2017-Jan-09 12:00N 37°49' W 032°27'0 0.0 17.3
2017-Jan-09 11:00N 37°49' W 032°27'0 0.0 17.3
2017-Jan-09 10:00N 37°49' W 032°27'0 0.0 17.3
2017-Jan-09 09:00N 37°49' W 032°27'1 0.6 17.3
2017-Jan-09 08:00N 37°49' W 032°27'1 0.8 17.3
2017-Jan-09 07:00N 37°49' W 032°26'0 0.0 17.3
2017-Jan-09 06:00N 37°49' W 032°26'2 1.5 17.3
2017-Jan-09 05:00N 37°49' W 032°25'0 0.0 17.3
2017-Jan-09 04:00N 37°49' W 032°25'0 0.0 17.3
2017-Jan-09 00:00N 37°49' W 032°25'3 2.9 17.3
2017-Jan-08 23:00N 37°49' W 032°21'1 0.6 17.3
2017-Jan-08 22:00N 37°49' W 032°21'1 1.4 17.3
2017-Jan-08 21:00N 37°49' W 032°23'1 1.4 17.3
2017-Jan-08 20:00N 37°49' W 032°21'1 1.1 17.3
2017-Jan-08 19:00N 37°49' W 032°22'1 0.8 17.3
2017-Jan-08 18:00N 37°50' W 032°22'0 0.0 17.3
2017-Jan-08 17:00N 37°50' W 032°22'0 0.5 17.3
2017-Jan-08 16:00N 37°50' W 032°21'0 0.0 17.3
2017-Jan-08 15:00N 37°50' W 032°21'1 0.4 17.3
2017-Jan-08 11:00N 37°50' W 032°19'0 0.0 17.4
2017-Jan-08 10:00N 37°50' W 032°19'1 0.9 17.4
2017-Jan-08 09:00N 37°50' W 032°20'0 0.0 17.5
2017-Jan-08 08:00N 37°50' W 032°20'1 0.8 17.5
2017-Jan-08 07:00N 37°49' W 032°20'3 2.9 17.5
2017-Jan-08 06:00N 37°49' W 032°16'3 3.0 17.4
2017-Jan-08 05:00N 37°50' W 032°19'0 0.0 17.5
2017-Jan-08 04:00N 37°50' W 032°19'1 0.2 17.4
2017-Jan-08 00:00N 37°51' W 032°19'0 0.0 17.5
2017-Jan-07 23:00N 37°51' W 032°19'0 0.2 17.4
2017-Jan-07 21:00N 37°51' W 032°18'0 0.0 17.3
2017-Jan-07 20:00N 37°51' W 032°18'2 1.8 17.3
2017-Jan-07 19:00N 37°53' W 032°18'0 0.0 17.3
2017-Jan-07 18:00N 37°53' W 032°18'0 0.5 17.3
2017-Jan-07 17:00N 37°53' W 032°19'0 0.0 17.3
2017-Jan-07 16:00N 37°53' W 032°19'0 0.0 17.3
2017-Jan-07 15:00N 37°53' W 032°19'2 1.2 17.3
2017-Jan-07 13:00N 37°53' W 032°16'1 1.1 17.3
2017-Jan-07 12:00N 37°54' W 032°17'0 0.0 17.3
2017-Jan-07 11:00N 37°54' W 032°17'0 0.0 17.3
2017-Jan-07 10:00N 37°54' W 032°17'2 1.5 17.3
2017-Jan-07 09:00N 37°55' W 032°19'0 0.0 17.3
2017-Jan-07 08:00N 37°55' W 032°19'3 1.4 17.3
2017-Jan-07 06:00N 37°55' W 032°15'1 0.4 17.3
2017-Jan-07 04:00N 37°55' W 032°14'0 0.0 17.3
2017-Jan-07 00:00N 37°55' W 032°14'   17.3

Dump ship's entire track history